sensor_id;sensor_type;location;lat;lon;timestamp;temperature;humidity
81337;DHT22;70799;48.000;10.584;2023-08-06T00:01:49;16.00;82.30
81337;DHT22;70799;48.000;10.584;2023-08-06T00:04:23;16.00;83.00
81337;DHT22;70799;48.000;10.584;2023-08-06T00:06:56;15.90;83.10
81337;DHT22;70799;48.000;10.584;2023-08-06T00:09:29;15.70;83.00
81337;DHT22;70799;48.000;10.584;2023-08-06T00:12:02;15.70;83.60
81337;DHT22;70799;48.000;10.584;2023-08-06T00:14:36;15.70;83.80
81337;DHT22;70799;48.000;10.584;2023-08-06T00:17:09;15.70;83.80
81337;DHT22;70799;48.000;10.584;2023-08-06T00:19:42;15.70;83.80
81337;DHT22;70799;48.000;10.584;2023-08-06T00:22:15;15.70;84.00
81337;DHT22;70799;48.000;10.584;2023-08-06T00:24:48;15.70;84.10
81337;DHT22;70799;48.000;10.584;2023-08-06T00:27:21;15.60;84.10
81337;DHT22;70799;48.000;10.584;2023-08-06T00:29:55;15.70;83.90
81337;DHT22;70799;48.000;10.584;2023-08-06T00:32:28;15.70;84.20
81337;DHT22;70799;48.000;10.584;2023-08-06T00:35:03;15.70;84.30
81337;DHT22;70799;48.000;10.584;2023-08-06T00:37:36;15.60;84.30
81337;DHT22;70799;48.000;10.584;2023-08-06T00:40:09;15.70;84.10
81337;DHT22;70799;48.000;10.584;2023-08-06T00:42:42;15.70;84.20
81337;DHT22;70799;48.000;10.584;2023-08-06T00:45:16;15.70;84.10
81337;DHT22;70799;48.000;10.584;2023-08-06T00:47:49;15.70;84.30
81337;DHT22;70799;48.000;10.584;2023-08-06T00:50:22;15.60;84.50
81337;DHT22;70799;48.000;10.584;2023-08-06T00:52:55;15.50;84.50
81337;DHT22;70799;48.000;10.584;2023-08-06T00:55:29;15.60;84.30
81337;DHT22;70799;48.000;10.584;2023-08-06T00:58:02;15.50;83.90
81337;DHT22;70799;48.000;10.584;2023-08-06T01:00:35;15.50;84.70
81337;DHT22;70799;48.000;10.584;2023-08-06T01:03:09;15.40;85.00
81337;DHT22;70799;48.000;10.584;2023-08-06T01:05:42;15.40;86.00
81337;DHT22;70799;48.000;10.584;2023-08-06T01:08:19;15.40;86.30
81337;DHT22;70799;48.000;10.584;2023-08-06T01:11:22;15.40;85.10
81337;DHT22;70799;48.000;10.584;2023-08-06T01:14:14;15.40;84.80
81337;DHT22;70799;48.000;10.584;2023-08-06T01:16:50;15.40;84.40
81337;DHT22;70799;48.000;10.584;2023-08-06T01:19:26;15.30;85.40
81337;DHT22;70799;48.000;10.584;2023-08-06T01:21:59;15.30;85.70
81337;DHT22;70799;48.000;10.584;2023-08-06T01:24:33;15.40;85.50
81337;DHT22;70799;48.000;10.584;2023-08-06T01:27:11;15.40;85.80
81337;DHT22;70799;48.000;10.584;2023-08-06T01:30:12;15.40;86.00
81337;DHT22;70799;48.000;10.584;2023-08-06T01:32:48;15.40;84.80
81337;DHT22;70799;48.000;10.584;2023-08-06T01:35:23;15.40;85.90
81337;DHT22;70799;48.000;10.584;2023-08-06T01:37:56;15.50;84.40
81337;DHT22;70799;48.000;10.584;2023-08-06T01:40:29;15.40;85.70
81337;DHT22;70799;48.000;10.584;2023-08-06T01:43:02;15.40;85.60
81337;DHT22;70799;48.000;10.584;2023-08-06T01:45:35;15.40;85.70
81337;DHT22;70799;48.000;10.584;2023-08-06T01:48:08;15.30;85.60
81337;DHT22;70799;48.000;10.584;2023-08-06T01:50:41;15.30;85.70
81337;DHT22;70799;48.000;10.584;2023-08-06T01:53:14;15.30;85.50
81337;DHT22;70799;48.000;10.584;2023-08-06T01:55:48;15.30;86.00
81337;DHT22;70799;48.000;10.584;2023-08-06T01:58:21;15.30;85.60
81337;DHT22;70799;48.000;10.584;2023-08-06T02:00:54;15.20;85.70
81337;DHT22;70799;48.000;10.584;2023-08-06T02:03:28;15.20;85.70
81337;DHT22;70799;48.000;10.584;2023-08-06T02:06:01;15.20;85.70
81337;DHT22;70799;48.000;10.584;2023-08-06T02:08:45;15.20;85.60
81337;DHT22;70799;48.000;10.584;2023-08-06T02:11:31;15.30;85.60
81337;DHT22;70799;48.000;10.584;2023-08-06T02:14:24;15.20;85.90
81337;DHT22;70799;48.000;10.584;2023-08-06T02:17:28;15.30;85.60
81337;DHT22;70799;48.000;10.584;2023-08-06T02:20:23;15.30;85.40
81337;DHT22;70799;48.000;10.584;2023-08-06T02:23:06;15.20;85.90
81337;DHT22;70799;48.000;10.584;2023-08-06T02:26:08;15.20;85.90
81337;DHT22;70799;48.000;10.584;2023-08-06T02:29:05;15.20;85.70
81337;DHT22;70799;48.000;10.584;2023-08-06T02:31:48;15.20;85.10
81337;DHT22;70799;48.000;10.584;2023-08-06T02:34:21;15.20;85.10
81337;DHT22;70799;48.000;10.584;2023-08-06T02:36:54;15.20;85.10
81337;DHT22;70799;48.000;10.584;2023-08-06T02:39:27;15.20;85.30
81337;DHT22;70799;48.000;10.584;2023-08-06T02:42:03;15.20;85.10
81337;DHT22;70799;48.000;10.584;2023-08-06T02:44:36;15.10;85.00
81337;DHT22;70799;48.000;10.584;2023-08-06T02:47:09;15.10;84.50
81337;DHT22;70799;48.000;10.584;2023-08-06T02:49:43;15.20;85.00
81337;DHT22;70799;48.000;10.584;2023-08-06T02:52:17;15.10;84.80
81337;DHT22;70799;48.000;10.584;2023-08-06T02:54:50;15.10;85.00
81337;DHT22;70799;48.000;10.584;2023-08-06T02:57:23;15.00;84.90
81337;DHT22;70799;48.000;10.584;2023-08-06T02:59:58;15.10;84.80
81337;DHT22;70799;48.000;10.584;2023-08-06T03:02:35;15.10;85.20
81337;DHT22;70799;48.000;10.584;2023-08-06T03:05:21;15.00;85.10
81337;DHT22;70799;48.000;10.584;2023-08-06T03:07:54;15.00;84.80
81337;DHT22;70799;48.000;10.584;2023-08-06T03:10:31;14.90;84.90
81337;DHT22;70799;48.000;10.584;2023-08-06T03:13:07;14.90;85.10
81337;DHT22;70799;48.000;10.584;2023-08-06T03:15:40;14.90;85.30
81337;DHT22;70799;48.000;10.584;2023-08-06T03:18:17;14.80;85.30
81337;DHT22;70799;48.000;10.584;2023-08-06T03:20:50;14.90;85.60
81337;DHT22;70799;48.000;10.584;2023-08-06T03:23:23;14.80;85.50
81337;DHT22;70799;48.000;10.584;2023-08-06T03:25:56;14.90;85.60
81337;DHT22;70799;48.000;10.584;2023-08-06T03:28:29;14.80;85.70
81337;DHT22;70799;48.000;10.584;2023-08-06T03:31:03;14.80;85.60
81337;DHT22;70799;48.000;10.584;2023-08-06T03:33:43;14.80;85.70
81337;DHT22;70799;48.000;10.584;2023-08-06T03:36:20;14.90;85.80
81337;DHT22;70799;48.000;10.584;2023-08-06T03:38:54;14.80;85.70
81337;DHT22;70799;48.000;10.584;2023-08-06T03:41:27;14.80;86.00
81337;DHT22;70799;48.000;10.584;2023-08-06T03:44:00;14.80;86.10
81337;DHT22;70799;48.000;10.584;2023-08-06T03:46:36;14.80;85.90
81337;DHT22;70799;48.000;10.584;2023-08-06T03:49:12;14.90;86.10
81337;DHT22;70799;48.000;10.584;2023-08-06T03:51:45;14.80;86.00
81337;DHT22;70799;48.000;10.584;2023-08-06T03:54:19;14.80;85.80
81337;DHT22;70799;48.000;10.584;2023-08-06T03:56:52;14.80;85.70
81337;DHT22;70799;48.000;10.584;2023-08-06T03:59:25;14.80;85.80
81337;DHT22;70799;48.000;10.584;2023-08-06T04:02:03;14.80;85.90
81337;DHT22;70799;48.000;10.584;2023-08-06T04:04:36;14.80;86.00
81337;DHT22;70799;48.000;10.584;2023-08-06T04:07:09;14.80;86.00
81337;DHT22;70799;48.000;10.584;2023-08-06T04:09:53;14.70;86.10
81337;DHT22;70799;48.000;10.584;2023-08-06T04:12:27;14.80;85.90
81337;DHT22;70799;48.000;10.584;2023-08-06T04:15:01;14.80;85.80
81337;DHT22;70799;48.000;10.584;2023-08-06T04:17:35;14.70;85.60
81337;DHT22;70799;48.000;10.584;2023-08-06T04:20:08;14.80;85.60
81337;DHT22;70799;48.000;10.584;2023-08-06T04:22:42;14.90;85.50
81337;DHT22;70799;48.000;10.584;2023-08-06T04:25:15;14.80;85.60
81337;DHT22;70799;48.000;10.584;2023-08-06T04:27:52;14.90;85.60
81337;DHT22;70799;48.000;10.584;2023-08-06T04:30:26;14.90;85.50
81337;DHT22;70799;48.000;10.584;2023-08-06T04:32:59;14.90;85.60
81337;DHT22;70799;48.000;10.584;2023-08-06T04:35:34;14.90;85.60
81337;DHT22;70799;48.000;10.584;2023-08-06T04:38:07;14.90;85.50
81337;DHT22;70799;48.000;10.584;2023-08-06T04:40:41;14.90;85.80
81337;DHT22;70799;48.000;10.584;2023-08-06T04:43:14;14.90;85.80
81337;DHT22;70799;48.000;10.584;2023-08-06T04:45:49;15.00;85.30
81337;DHT22;70799;48.000;10.584;2023-08-06T04:48:22;15.00;85.40
81337;DHT22;70799;48.000;10.584;2023-08-06T04:50:56;15.10;85.10
81337;DHT22;70799;48.000;10.584;2023-08-06T04:53:29;15.10;84.80
81337;DHT22;70799;48.000;10.584;2023-08-06T04:56:02;15.20;84.60
81337;DHT22;70799;48.000;10.584;2023-08-06T04:58:35;15.20;84.40
81337;DHT22;70799;48.000;10.584;2023-08-06T05:01:11;15.30;84.30
81337;DHT22;70799;48.000;10.584;2023-08-06T05:03:44;15.40;82.40
81337;DHT22;70799;48.000;10.584;2023-08-06T05:06:17;15.50;81.80
81337;DHT22;70799;48.000;10.584;2023-08-06T05:08:50;15.60;82.50
81337;DHT22;70799;48.000;10.584;2023-08-06T05:11:24;15.70;82.10
81337;DHT22;70799;48.000;10.584;2023-08-06T05:13:57;15.70;81.60
81337;DHT22;70799;48.000;10.584;2023-08-06T05:16:32;15.90;80.70
81337;DHT22;70799;48.000;10.584;2023-08-06T05:19:05;16.00;81.00
81337;DHT22;70799;48.000;10.584;2023-08-06T05:21:39;16.00;80.80
81337;DHT22;70799;48.000;10.584;2023-08-06T05:24:12;16.00;80.40
81337;DHT22;70799;48.000;10.584;2023-08-06T05:26:45;16.10;79.80
81337;DHT22;70799;48.000;10.584;2023-08-06T05:29:19;16.20;79.70
81337;DHT22;70799;48.000;10.584;2023-08-06T05:31:52;16.30;80.00
81337;DHT22;70799;48.000;10.584;2023-08-06T05:34:26;16.30;79.10
81337;DHT22;70799;48.000;10.584;2023-08-06T05:36:59;16.30;79.00
81337;DHT22;70799;48.000;10.584;2023-08-06T05:39:33;16.20;79.00
81337;DHT22;70799;48.000;10.584;2023-08-06T05:42:07;16.20;79.80
81337;DHT22;70799;48.000;10.584;2023-08-06T05:44:41;16.30;79.70
81337;DHT22;70799;48.000;10.584;2023-08-06T05:47:14;16.10;79.70
81337;DHT22;70799;48.000;10.584;2023-08-06T05:49:47;16.10;79.60
81337;DHT22;70799;48.000;10.584;2023-08-06T05:52:20;16.10;80.50
81337;DHT22;70799;48.000;10.584;2023-08-06T05:54:53;16.00;80.30
81337;DHT22;70799;48.000;10.584;2023-08-06T05:57:26;16.00;80.50
81337;DHT22;70799;48.000;10.584;2023-08-06T06:00:00;16.00;80.60
81337;DHT22;70799;48.000;10.584;2023-08-06T06:02:43;15.90;80.70
81337;DHT22;70799;48.000;10.584;2023-08-06T06:05:16;16.00;80.80
81337;DHT22;70799;48.000;10.584;2023-08-06T06:07:49;16.00;80.50
81337;DHT22;70799;48.000;10.584;2023-08-06T06:10:22;16.00;81.00
81337;DHT22;70799;48.000;10.584;2023-08-06T06:12:54;16.10;81.50
81337;DHT22;70799;48.000;10.584;2023-08-06T06:15:28;15.90;81.70
81337;DHT22;70799;48.000;10.584;2023-08-06T06:18:00;15.90;82.00
81337;DHT22;70799;48.000;10.584;2023-08-06T06:20:34;15.80;82.70
81337;DHT22;70799;48.000;10.584;2023-08-06T06:23:07;15.70;82.70
81337;DHT22;70799;48.000;10.584;2023-08-06T06:25:47;15.60;83.00
81337;DHT22;70799;48.000;10.584;2023-08-06T06:28:20;15.60;83.80
81337;DHT22;70799;48.000;10.584;2023-08-06T06:30:53;15.50;83.50
81337;DHT22;70799;48.000;10.584;2023-08-06T06:33:26;15.40;84.90
81337;DHT22;70799;48.000;10.584;2023-08-06T06:36:05;15.30;85.50
81337;DHT22;70799;48.000;10.584;2023-08-06T06:38:43;15.40;85.00
81337;DHT22;70799;48.000;10.584;2023-08-06T06:41:16;15.40;85.70
81337;DHT22;70799;48.000;10.584;2023-08-06T06:43:50;15.40;84.80
81337;DHT22;70799;48.000;10.584;2023-08-06T06:46:33;15.60;84.30
81337;DHT22;70799;48.000;10.584;2023-08-06T06:49:06;15.70;83.30
81337;DHT22;70799;48.000;10.584;2023-08-06T06:51:42;15.70;83.60
81337;DHT22;70799;48.000;10.584;2023-08-06T06:54:15;15.70;83.10
81337;DHT22;70799;48.000;10.584;2023-08-06T06:56:50;15.90;83.90
81337;DHT22;70799;48.000;10.584;2023-08-06T06:59:28;16.10;82.70
81337;DHT22;70799;48.000;10.584;2023-08-06T07:02:02;16.30;81.50
81337;DHT22;70799;48.000;10.584;2023-08-06T07:04:42;16.40;81.80
81337;DHT22;70799;48.000;10.584;2023-08-06T07:07:23;16.50;81.20
81337;DHT22;70799;48.000;10.584;2023-08-06T07:09:57;16.70;80.80
81337;DHT22;70799;48.000;10.584;2023-08-06T07:12:34;16.90;79.90
81337;DHT22;70799;48.000;10.584;2023-08-06T07:18:03;17.10;78.40
81337;DHT22;70799;48.000;10.584;2023-08-06T07:20:37;17.10;79.20
81337;DHT22;70799;48.000;10.584;2023-08-06T07:23:12;17.20;78.10
81337;DHT22;70799;48.000;10.584;2023-08-06T07:25:54;17.30;78.40
81337;DHT22;70799;48.000;10.584;2023-08-06T07:28:30;17.30;78.00
81337;DHT22;70799;48.000;10.584;2023-08-06T07:31:09;17.20;76.80
81337;DHT22;70799;48.000;10.584;2023-08-06T07:33:42;17.20;76.20
81337;DHT22;70799;48.000;10.584;2023-08-06T07:36:16;17.20;77.20
81337;DHT22;70799;48.000;10.584;2023-08-06T07:38:50;17.10;75.80
81337;DHT22;70799;48.000;10.584;2023-08-06T07:41:28;17.20;76.70
81337;DHT22;70799;48.000;10.584;2023-08-06T07:44:02;17.40;75.80
81337;DHT22;70799;48.000;10.584;2023-08-06T07:46:40;17.70;76.40
81337;DHT22;70799;48.000;10.584;2023-08-06T07:49:17;18.00;75.00
81337;DHT22;70799;48.000;10.584;2023-08-06T07:51:53;18.20;72.80
81337;DHT22;70799;48.000;10.584;2023-08-06T07:54:38;18.30;72.70
81337;DHT22;70799;48.000;10.584;2023-08-06T07:57:12;18.10;74.60
81337;DHT22;70799;48.000;10.584;2023-08-06T07:59:54;18.00;73.20
81337;DHT22;70799;48.000;10.584;2023-08-06T08:02:44;17.70;73.90
81337;DHT22;70799;48.000;10.584;2023-08-06T08:05:18;17.60;74.80
81337;DHT22;70799;48.000;10.584;2023-08-06T08:08:01;17.50;74.70
81337;DHT22;70799;48.000;10.584;2023-08-06T08:10:38;17.40;74.90
81337;DHT22;70799;48.000;10.584;2023-08-06T08:13:12;17.40;75.00
81337;DHT22;70799;48.000;10.584;2023-08-06T08:15:45;17.30;74.40
81337;DHT22;70799;48.000;10.584;2023-08-06T08:18:20;17.20;74.40
81337;DHT22;70799;48.000;10.584;2023-08-06T08:21:01;17.20;74.90
81337;DHT22;70799;48.000;10.584;2023-08-06T08:23:37;17.20;75.70
81337;DHT22;70799;48.000;10.584;2023-08-06T08:26:11;17.20;75.90
81337;DHT22;70799;48.000;10.584;2023-08-06T08:28:44;17.30;75.70
81337;DHT22;70799;48.000;10.584;2023-08-06T08:31:19;17.20;75.70
81337;DHT22;70799;48.000;10.584;2023-08-06T08:34:11;17.10;74.80
81337;DHT22;70799;48.000;10.584;2023-08-06T08:36:44;17.10;75.40
81337;DHT22;70799;48.000;10.584;2023-08-06T08:39:22;16.80;75.50
81337;DHT22;70799;48.000;10.584;2023-08-06T08:42:06;16.70;77.30
81337;DHT22;70799;48.000;10.584;2023-08-06T08:44:41;16.50;78.10
81337;DHT22;70799;48.000;10.584;2023-08-06T08:47:19;16.40;78.60
81337;DHT22;70799;48.000;10.584;2023-08-06T08:49:56;16.40;79.20
81337;DHT22;70799;48.000;10.584;2023-08-06T08:52:31;16.40;79.10
81337;DHT22;70799;48.000;10.584;2023-08-06T08:55:06;16.30;78.60
81337;DHT22;70799;48.000;10.584;2023-08-06T08:57:50;16.40;79.40
81337;DHT22;70799;48.000;10.584;2023-08-06T09:00:31;16.50;80.20
81337;DHT22;70799;48.000;10.584;2023-08-06T09:03:08;16.50;80.00
81337;DHT22;70799;48.000;10.584;2023-08-06T09:05:44;16.60;79.80
81337;DHT22;70799;48.000;10.584;2023-08-06T09:08:34;16.60;79.90
81337;DHT22;70799;48.000;10.584;2023-08-06T09:11:11;16.80;79.70
81337;DHT22;70799;48.000;10.584;2023-08-06T09:14:01;17.00;78.70
81337;DHT22;70799;48.000;10.584;2023-08-06T09:16:35;17.20;77.90
81337;DHT22;70799;48.000;10.584;2023-08-06T09:19:15;17.20;76.60
81337;DHT22;70799;48.000;10.584;2023-08-06T09:21:55;17.20;78.00
81337;DHT22;70799;48.000;10.584;2023-08-06T09:24:29;17.00;78.10
81337;DHT22;70799;48.000;10.584;2023-08-06T09:27:13;17.00;77.50
81337;DHT22;70799;48.000;10.584;2023-08-06T09:29:47;16.70;79.00
81337;DHT22;70799;48.000;10.584;2023-08-06T09:32:48;16.70;78.60
81337;DHT22;70799;48.000;10.584;2023-08-06T09:35:31;16.50;79.20
81337;DHT22;70799;48.000;10.584;2023-08-06T09:38:09;16.50;79.20
81337;DHT22;70799;48.000;10.584;2023-08-06T09:40:44;16.70;78.60
81337;DHT22;70799;48.000;10.584;2023-08-06T09:43:22;16.70;78.50
81337;DHT22;70799;48.000;10.584;2023-08-06T09:45:58;16.80;78.70
81337;DHT22;70799;48.000;10.584;2023-08-06T09:48:33;16.90;77.80
81337;DHT22;70799;48.000;10.584;2023-08-06T09:51:14;17.10;78.40
81337;DHT22;70799;48.000;10.584;2023-08-06T09:53:48;17.20;77.50
81337;DHT22;70799;48.000;10.584;2023-08-06T09:56:26;17.10;78.00
81337;DHT22;70799;48.000;10.584;2023-08-06T09:59:12;17.00;77.80
81337;DHT22;70799;48.000;10.584;2023-08-06T10:01:48;17.00;78.30
81337;DHT22;70799;48.000;10.584;2023-08-06T10:04:22;16.70;78.70
81337;DHT22;70799;48.000;10.584;2023-08-06T10:07:16;16.70;79.20
81337;DHT22;70799;48.000;10.584;2023-08-06T10:10:03;16.80;80.30
81337;DHT22;70799;48.000;10.584;2023-08-06T10:12:50;16.80;79.20
81337;DHT22;70799;48.000;10.584;2023-08-06T10:15:26;16.70;79.00
81337;DHT22;70799;48.000;10.584;2023-08-06T10:18:01;16.70;79.30
81337;DHT22;70799;48.000;10.584;2023-08-06T10:20:36;16.50;79.50
81337;DHT22;70799;48.000;10.584;2023-08-06T10:23:10;16.30;79.20
81337;DHT22;70799;48.000;10.584;2023-08-06T10:25:53;16.20;80.80
81337;DHT22;70799;48.000;10.584;2023-08-06T10:28:36;16.10;81.20
81337;DHT22;70799;48.000;10.584;2023-08-06T10:31:55;16.00;80.80
81337;DHT22;70799;48.000;10.584;2023-08-06T10:34:53;16.00;81.30
81337;DHT22;70799;48.000;10.584;2023-08-06T10:37:37;16.00;81.40
81337;DHT22;70799;48.000;10.584;2023-08-06T10:40:21;16.00;81.40
81337;DHT22;70799;48.000;10.584;2023-08-06T10:43:05;15.80;80.50
81337;DHT22;70799;48.000;10.584;2023-08-06T10:45:59;15.80;80.70
81337;DHT22;70799;48.000;10.584;2023-08-06T10:48:40;15.70;81.20
81337;DHT22;70799;48.000;10.584;2023-08-06T10:51:14;15.60;81.60
81337;DHT22;70799;48.000;10.584;2023-08-06T10:53:49;15.60;81.70
81337;DHT22;70799;48.000;10.584;2023-08-06T10:56:29;15.70;81.60
81337;DHT22;70799;48.000;10.584;2023-08-06T10:59:03;15.80;82.20
81337;DHT22;70799;48.000;10.584;2023-08-06T11:01:37;16.00;82.60
81337;DHT22;70799;48.000;10.584;2023-08-06T11:04:13;16.10;82.30
81337;DHT22;70799;48.000;10.584;2023-08-06T11:06:52;16.00;80.90
81337;DHT22;70799;48.000;10.584;2023-08-06T11:09:35;16.10;81.80
81337;DHT22;70799;48.000;10.584;2023-08-06T11:12:17;16.10;82.20
81337;DHT22;70799;48.000;10.584;2023-08-06T11:14:52;16.10;82.10
81337;DHT22;70799;48.000;10.584;2023-08-06T11:17:34;16.20;82.00
81337;DHT22;70799;48.000;10.584;2023-08-06T11:20:21;15.90;81.20
81337;DHT22;70799;48.000;10.584;2023-08-06T11:23:09;15.90;81.50
81337;DHT22;70799;48.000;10.584;2023-08-06T11:25:47;15.90;81.30
81337;DHT22;70799;48.000;10.584;2023-08-06T11:28:25;16.10;81.70
81337;DHT22;70799;48.000;10.584;2023-08-06T11:31:24;16.20;80.90
81337;DHT22;70799;48.000;10.584;2023-08-06T11:33:57;16.50;81.90
81337;DHT22;70799;48.000;10.584;2023-08-06T11:36:34;16.70;80.10
81337;DHT22;70799;48.000;10.584;2023-08-06T11:39:14;17.10;81.50
81337;DHT22;70799;48.000;10.584;2023-08-06T11:41:54;17.40;79.40
81337;DHT22;70799;48.000;10.584;2023-08-06T11:44:31;17.60;79.00
81337;DHT22;70799;48.000;10.584;2023-08-06T11:47:16;17.70;78.50
81337;DHT22;70799;48.000;10.584;2023-08-06T11:49:50;17.70;77.40
81337;DHT22;70799;48.000;10.584;2023-08-06T11:52:25;17.60;77.40
81337;DHT22;70799;48.000;10.584;2023-08-06T11:58:25;17.40;76.90
81337;DHT22;70799;48.000;10.584;2023-08-06T12:01:01;17.30;77.20
81337;DHT22;70799;48.000;10.584;2023-08-06T12:03:41;17.00;78.10
81337;DHT22;70799;48.000;10.584;2023-08-06T12:06:16;17.00;78.30
81337;DHT22;70799;48.000;10.584;2023-08-06T12:08:52;16.90;78.90
81337;DHT22;70799;48.000;10.584;2023-08-06T12:11:26;16.70;78.40
81337;DHT22;70799;48.000;10.584;2023-08-06T12:14:02;16.30;79.70
81337;DHT22;70799;48.000;10.584;2023-08-06T12:16:35;16.30;80.50
81337;DHT22;70799;48.000;10.584;2023-08-06T12:19:09;16.10;81.20
81337;DHT22;70799;48.000;10.584;2023-08-06T12:21:42;15.80;81.70
81337;DHT22;70799;48.000;10.584;2023-08-06T12:24:16;15.60;82.40
81337;DHT22;70799;48.000;10.584;2023-08-06T12:26:59;15.50;83.20
81337;DHT22;70799;48.000;10.584;2023-08-06T12:29:34;15.30;84.40
81337;DHT22;70799;48.000;10.584;2023-08-06T12:32:07;15.20;85.20
81337;DHT22;70799;48.000;10.584;2023-08-06T12:34:41;15.20;85.30
81337;DHT22;70799;48.000;10.584;2023-08-06T12:37:25;15.10;85.10
81337;DHT22;70799;48.000;10.584;2023-08-06T12:39:59;15.10;85.00
81337;DHT22;70799;48.000;10.584;2023-08-06T12:42:56;15.00;85.10
81337;DHT22;70799;48.000;10.584;2023-08-06T12:45:32;15.00;85.50
81337;DHT22;70799;48.000;10.584;2023-08-06T12:48:05;14.90;84.70
81337;DHT22;70799;48.000;10.584;2023-08-06T12:50:39;15.00;86.60
81337;DHT22;70799;48.000;10.584;2023-08-06T12:53:12;15.00;86.00
81337;DHT22;70799;48.000;10.584;2023-08-06T12:55:47;15.10;85.70
81337;DHT22;70799;48.000;10.584;2023-08-06T12:58:20;15.00;85.80
81337;DHT22;70799;48.000;10.584;2023-08-06T13:00:54;15.20;86.70
81337;DHT22;70799;48.000;10.584;2023-08-06T13:03:27;15.30;85.70
81337;DHT22;70799;48.000;10.584;2023-08-06T13:06:04;15.30;85.10
81337;DHT22;70799;48.000;10.584;2023-08-06T13:08:37;15.40;86.00
81337;DHT22;70799;48.000;10.584;2023-08-06T13:11:11;15.40;84.90
81337;DHT22;70799;48.000;10.584;2023-08-06T13:13:45;15.50;85.00
81337;DHT22;70799;48.000;10.584;2023-08-06T13:16:18;15.60;83.80
81337;DHT22;70799;48.000;10.584;2023-08-06T13:18:52;15.60;83.70
81337;DHT22;70799;48.000;10.584;2023-08-06T13:22:18;15.60;82.80
81337;DHT22;70799;48.000;10.584;2023-08-06T13:24:26;15.60;83.60
81337;DHT22;70799;48.000;10.584;2023-08-06T13:27:02;15.60;83.40
81337;DHT22;70799;48.000;10.584;2023-08-06T13:29:35;15.60;83.00
81337;DHT22;70799;48.000;10.584;2023-08-06T13:32:09;15.60;83.00
81337;DHT22;70799;48.000;10.584;2023-08-06T13:34:43;15.70;83.60
81337;DHT22;70799;48.000;10.584;2023-08-06T13:37:16;15.80;83.60
81337;DHT22;70799;48.000;10.584;2023-08-06T13:39:50;15.90;83.40
81337;DHT22;70799;48.000;10.584;2023-08-06T13:42:26;15.90;82.50
81337;DHT22;70799;48.000;10.584;2023-08-06T13:45:02;15.90;82.70
81337;DHT22;70799;48.000;10.584;2023-08-06T13:47:35;16.00;83.20
81337;DHT22;70799;48.000;10.584;2023-08-06T13:50:09;16.20;83.10
81337;DHT22;70799;48.000;10.584;2023-08-06T13:52:42;16.20;82.50
81337;DHT22;70799;48.000;10.584;2023-08-06T13:55:15;16.30;82.40
81337;DHT22;70799;48.000;10.584;2023-08-06T13:57:48;16.40;81.80
81337;DHT22;70799;48.000;10.584;2023-08-06T14:00:22;16.50;81.80
81337;DHT22;70799;48.000;10.584;2023-08-06T14:02:54;16.50;80.80
81337;DHT22;70799;48.000;10.584;2023-08-06T14:05:28;16.40;81.00
81337;DHT22;70799;48.000;10.584;2023-08-06T14:08:01;16.40;80.40
81337;DHT22;70799;48.000;10.584;2023-08-06T14:10:34;16.20;81.20
81337;DHT22;70799;48.000;10.584;2023-08-06T14:13:07;16.20;81.40
81337;DHT22;70799;48.000;10.584;2023-08-06T14:15:42;16.20;81.50
81337;DHT22;70799;48.000;10.584;2023-08-06T14:18:19;16.20;81.60
81337;DHT22;70799;48.000;10.584;2023-08-06T14:20:53;16.20;80.80
81337;DHT22;70799;48.000;10.584;2023-08-06T14:23:27;16.10;81.50
81337;DHT22;70799;48.000;10.584;2023-08-06T14:25:59;16.10;81.80
81337;DHT22;70799;48.000;10.584;2023-08-06T14:28:33;16.10;81.10
81337;DHT22;70799;48.000;10.584;2023-08-06T14:31:06;16.10;80.60
81337;DHT22;70799;48.000;10.584;2023-08-06T14:33:39;16.10;81.10
81337;DHT22;70799;48.000;10.584;2023-08-06T14:36:13;16.10;81.20
81337;DHT22;70799;48.000;10.584;2023-08-06T14:38:47;16.10;80.60
81337;DHT22;70799;48.000;10.584;2023-08-06T14:41:31;16.20;81.20
81337;DHT22;70799;48.000;10.584;2023-08-06T14:44:06;16.10;80.50
81337;DHT22;70799;48.000;10.584;2023-08-06T14:46:40;16.10;80.20
81337;DHT22;70799;48.000;10.584;2023-08-06T14:49:13;16.20;80.20
81337;DHT22;70799;48.000;10.584;2023-08-06T14:51:47;16.20;79.40
81337;DHT22;70799;48.000;10.584;2023-08-06T14:54:20;16.40;79.20
81337;DHT22;70799;48.000;10.584;2023-08-06T14:56:54;16.60;78.90
81337;DHT22;70799;48.000;10.584;2023-08-06T14:59:32;16.60;78.70
81337;DHT22;70799;48.000;10.584;2023-08-06T15:02:13;16.50;77.80
81337;DHT22;70799;48.000;10.584;2023-08-06T15:04:51;16.40;78.60
81337;DHT22;70799;48.000;10.584;2023-08-06T15:07:32;16.30;79.50
81337;DHT22;70799;48.000;10.584;2023-08-06T15:10:07;16.10;80.20
81337;DHT22;70799;48.000;10.584;2023-08-06T15:13:02;16.00;80.80
81337;DHT22;70799;48.000;10.584;2023-08-06T15:15:41;15.80;81.00
81337;DHT22;70799;48.000;10.584;2023-08-06T15:18:16;15.70;81.10
81337;DHT22;70799;48.000;10.584;2023-08-06T15:20:51;15.50;82.40
81337;DHT22;70799;48.000;10.584;2023-08-06T15:23:24;15.50;82.70
81337;DHT22;70799;48.000;10.584;2023-08-06T15:25:58;15.60;82.60
81337;DHT22;70799;48.000;10.584;2023-08-06T15:28:33;15.50;81.70
81337;DHT22;70799;48.000;10.584;2023-08-06T15:31:07;15.60;83.00
81337;DHT22;70799;48.000;10.584;2023-08-06T15:33:45;15.50;82.00
81337;DHT22;70799;48.000;10.584;2023-08-06T15:36:19;15.50;83.00
81337;DHT22;70799;48.000;10.584;2023-08-06T15:38:52;15.60;82.90
81337;DHT22;70799;48.000;10.584;2023-08-06T15:41:30;15.70;83.00
81337;DHT22;70799;48.000;10.584;2023-08-06T15:44:07;15.80;82.60
81337;DHT22;70799;48.000;10.584;2023-08-06T15:46:41;16.00;82.60
81337;DHT22;70799;48.000;10.584;2023-08-06T15:49:18;16.20;81.10
81337;DHT22;70799;48.000;10.584;2023-08-06T15:51:51;16.30;82.00
81337;DHT22;70799;48.000;10.584;2023-08-06T15:54:29;16.30;80.90
81337;DHT22;70799;48.000;10.584;2023-08-06T15:57:05;16.40;80.90
81337;DHT22;70799;48.000;10.584;2023-08-06T15:59:38;16.40;81.40
81337;DHT22;70799;48.000;10.584;2023-08-06T16:02:12;16.30;80.80
81337;DHT22;70799;48.000;10.584;2023-08-06T16:04:47;16.20;81.20
81337;DHT22;70799;48.000;10.584;2023-08-06T16:07:21;16.10;81.30
81337;DHT22;70799;48.000;10.584;2023-08-06T16:09:57;16.10;81.30
81337;DHT22;70799;48.000;10.584;2023-08-06T16:12:37;16.00;80.90
81337;DHT22;70799;48.000;10.584;2023-08-06T16:15:11;15.90;81.20
81337;DHT22;70799;48.000;10.584;2023-08-06T16:17:50;15.90;81.40
81337;DHT22;70799;48.000;10.584;2023-08-06T16:20:24;16.00;80.60